Time;durP1;ratioP1;P1;durP2;ratioP2;P2;SDS_P1;SDS_P2;PMS_P1;PMS_P2;Temp;Humidity;BMP_temperature;BMP_pressure;BME280_temperature;BME280_humidity;BME280_pressure;Samples;Min_cycle;Max_cycle;Signal;HPM_P1;HPM_P2
2021/05/18 00:00:19;;;;;;;1.88;1.00;;;10.40;99.90;;;;;;5089208;28;20837;-80
2021/05/18 00:02:45;;;;;;;1.20;1.08;;;10.40;99.90;;;;;;5088373;28;20024;-80
2021/05/18 00:05:12;;;;;;;2.75;1.40;;;10.50;99.90;;;;;;5088600;28;20081;-80
2021/05/18 00:07:41;;;;;;;3.58;1.38;;;10.40;99.90;;;;;;5089128;28;20032;-80
2021/05/18 00:12:52;;;;;;;1.30;1.20;;;10.40;99.90;;;;;;5089157;28;20069;-79
2021/05/18 00:15:20;;;;;;;1.60;1.35;;;10.40;99.90;;;;;;5088466;28;20026;-80
2021/05/18 00:17:46;;;;;;;2.17;1.20;;;10.40;99.90;;;;;;5089222;28;20032;-79
2021/05/18 00:20:13;;;;;;;1.25;1.05;;;10.30;99.90;;;;;;5089325;28;20031;-80
2021/05/18 00:22:39;;;;;;;2.83;1.60;;;10.30;99.90;;;;;;5088023;28;20070;-80
2021/05/18 00:25:07;;;;;;;4.82;1.50;;;10.30;99.90;;;;;;5087440;28;20475;-80
2021/05/18 00:27:33;;;;;;;1.55;1.10;;;10.30;99.90;;;;;;5088398;28;20198;-80
2021/05/18 00:29:58;;;;;;;4.13;1.45;;;10.20;99.90;;;;;;5088852;28;20093;-80
2021/05/18 00:32:24;;;;;;;1.50;1.17;;;10.20;99.90;;;;;;5087762;28;20055;-80
2021/05/18 00:34:55;;;;;;;3.75;1.05;;;10.20;99.90;;;;;;5088336;28;20059;-80
2021/05/18 00:37:23;;;;;;;1.98;1.23;;;10.20;99.90;;;;;;5087802;28;20032;-80
2021/05/18 00:39:49;;;;;;;1.58;1.30;;;10.20;99.90;;;;;;5082221;28;20081;-80
2021/05/18 00:42:21;;;;;;;1.52;1.10;;;10.20;99.90;;;;;;5084204;28;20068;-80
2021/05/18 00:44:52;;;;;;;1.23;1.08;;;10.20;99.90;;;;;;5088148;28;20028;-80
2021/05/18 00:47:18;;;;;;;3.28;1.83;;;10.20;99.90;;;;;;5088095;28;20024;-80
2021/05/18 00:49:43;;;;;;;1.75;1.40;;;10.30;99.90;;;;;;5088334;28;20430;-80
2021/05/18 00:52:09;;;;;;;1.33;1.13;;;10.30;99.90;;;;;;5087948;28;20044;-80
2021/05/18 00:54:51;;;;;;;1.10;1.00;;;10.30;99.90;;;;;;5088251;28;20153;-80
2021/05/18 01:00:01;;;;;;;0.90;0.77;;;10.30;99.90;;;;;;5088521;28;20039;-80
2021/05/18 01:02:26;;;;;;;1.25;0.88;;;10.40;99.90;;;;;;5088775;28;20032;-80
2021/05/18 01:04:56;;;;;;;1.20;1.10;;;10.60;99.90;;;;;;5086461;28;20024;-80
2021/05/18 01:07:22;;;;;;;1.10;0.98;;;10.70;99.90;;;;;;5085315;28;20386;-80
2021/05/18 01:09:48;;;;;;;1.55;1.20;;;10.90;99.90;;;;;;5074321;28;20024;-80
2021/05/18 01:12:14;;;;;;;1.23;0.90;;;11.00;99.90;;;;;;5082036;28;20380;-80
2021/05/18 01:14:39;;;;;;;0.90;0.90;;;11.10;99.90;;;;;;5086964;28;20032;-80
2021/05/18 01:17:05;;;;;;;3.05;0.98;;;11.10;99.90;;;;;;5087986;28;20039;-80
2021/05/18 01:19:31;;;;;;;1.13;0.80;;;11.10;99.90;;;;;;5088240;28;20024;-80
2021/05/18 01:22:00;;;;;;;11.40;1.27;;;11.10;99.90;;;;;;5087369;28;20031;-80
2021/05/18 01:24:25;;;;;;;3.42;1.17;;;11.20;99.90;;;;;;5087779;28;20032;-80
2021/05/18 01:26:51;;;;;;;9.88;1.55;;;11.20;99.90;;;;;;5087444;28;20580;-79
2021/05/18 01:29:19;;;;;;;1.30;1.00;;;11.10;99.90;;;;;;5087955;28;20398;-80
2021/05/18 01:31:45;;;;;;;1.83;1.00;;;11.10;99.90;;;;;;5087880;28;20062;-80
2021/05/18 01:34:11;;;;;;;6.20;1.35;;;11.10;99.90;;;;;;5087655;28;20044;-80
2021/05/18 01:36:37;;;;;;;1.42;1.10;;;11.00;99.90;;;;;;5088378;28;20058;-80
2021/05/18 01:44:25;;;;;;;2.50;1.20;;;10.80;99.90;;;;;;5090433;28;20064;-80
2021/05/18 01:46:52;;;;;;;1.50;1.00;;;10.60;99.90;;;;;;5091115;28;20028;-80
2021/05/18 01:49:17;;;;;;;2.03;1.20;;;10.60;99.90;;;;;;5091798;28;20099;-80
2021/05/18 01:51:49;;;;;;;2.78;1.10;;;10.50;99.90;;;;;;5090441;28;20111;-80
2021/05/18 01:54:25;;;;;;;1.77;1.00;;;10.50;99.90;;;;;;5088117;28;20036;-80
2021/05/18 01:57:04;;;;;;;1.98;1.27;;;10.50;99.90;;;;;;5090787;28;20035;-80
2021/05/18 01:59:32;;;;;;;2.15;1.38;;;10.40;99.90;;;;;;5087736;28;20410;-80
2021/05/18 02:02:04;;;;;;;1.40;1.20;;;10.40;99.90;;;;;;5091411;28;20547;-80
2021/05/18 02:04:35;;;;;;;1.00;0.90;;;10.50;99.90;;;;;;5091723;28;20528;-80
2021/05/18 02:07:23;;;;;;;2.15;1.00;;;10.40;99.90;;;;;;5090544;28;20043;-80
2021/05/18 02:09:49;;;;;;;1.33;1.00;;;10.40;99.90;;;;;;5090150;28;20034;-80
2021/05/18 02:12:14;;;;;;;4.20;1.30;;;10.30;99.90;;;;;;5091608;28;20028;-80
2021/05/18 02:14:42;;;;;;;3.03;1.27;;;10.20;99.90;;;;;;5091343;28;20100;-80
2021/05/18 02:17:19;;;;;;;4.22;1.08;;;10.10;99.90;;;;;;5090963;28;20059;-80
2021/05/18 02:24:36;;;;;;;2.53;1.48;;;10.10;99.90;;;;;;5088188;28;20054;-81
2021/05/18 02:25:33;;;;;;;2.17;1.40;;;10.20;99.90;;;;;;5091068;28;20111;-81
2021/05/18 02:27:59;;;;;;;2.03;1.27;;;10.40;99.90;;;;;;5090650;28;20300;-80
2021/05/18 02:30:25;;;;;;;9.95;1.98;;;10.60;99.90;;;;;;5091140;28;20051;-80
2021/05/18 02:32:52;;;;;;;1.55;1.38;;;10.70;99.90;;;;;;5090689;28;20028;-80
2021/05/18 02:35:18;;;;;;;1.48;1.38;;;10.80;99.90;;;;;;5090732;28;20054;-81
2021/05/18 02:37:45;;;;;;;1.73;1.20;;;10.80;99.90;;;;;;5090901;28;20028;-80
2021/05/18 02:40:31;;;;;;;1.70;1.05;;;10.90;99.90;;;;;;5091166;28;20032;-80
2021/05/18 02:42:57;;;;;;;2.10;1.10;;;10.90;99.90;;;;;;5089827;28;20028;-80
2021/05/18 02:45:33;;;;;;;1.33;1.15;;;11.00;99.90;;;;;;5090825;28;20024;-80
2021/05/18 02:50:44;;;;;;;0.77;0.77;;;11.00;99.90;;;;;;5090192;28;20537;-80
2021/05/18 02:53:10;;;;;;;2.60;1.23;;;10.90;99.90;;;;;;5089809;28;20118;-80
2021/05/18 02:58:23;;;;;;;2.45;1.92;;;10.90;99.90;;;;;;5089614;28;20039;-80
2021/05/18 03:00:49;;;;;;;2.00;1.80;;;10.90;99.90;;;;;;5089865;28;20055;-80
2021/05/18 03:03:14;;;;;;;4.05;1.95;;;10.70;99.90;;;;;;5090348;28;20441;-80
2021/05/18 03:05:40;;;;;;;2.00;1.77;;;10.80;99.90;;;;;;5080191;28;20050;-80
2021/05/18 03:08:05;;;;;;;2.20;1.77;;;10.70;99.90;;;;;;5089644;28;20067;-79
2021/05/18 03:10:31;;;;;;;1.38;1.27;;;10.70;99.90;;;;;;5090306;28;20042;-80
2021/05/18 03:12:57;;;;;;;2.10;1.40;;;10.70;99.90;;;;;;5090045;28;20032;-80
2021/05/18 03:15:22;;;;;;;1.80;1.60;;;10.70;99.90;;;;;;5089842;28;20024;-80
2021/05/18 03:17:48;;;;;;;1.73;1.60;;;10.80;99.90;;;;;;5089739;28;20530;-80
2021/05/18 03:20:19;;;;;;;2.15;1.63;;;10.70;99.90;;;;;;5090298;28;20031;-80
2021/05/18 03:22:44;;;;;;;3.90;1.20;;;10.60;99.90;;;;;;5089925;28;20040;-80
2021/05/18 03:25:10;;;;;;;1.65;1.40;;;10.60;99.90;;;;;;5089254;28;20024;-80
2021/05/18 03:27:37;;;;;;;3.58;1.20;;;10.70;99.90;;;;;;5089783;28;20024;-80
2021/05/18 03:35:35;;;;;;;2.25;1.02;;;11.10;99.90;;;;;;5089803;28;20027;-80
2021/05/18 03:38:06;;;;;;;2.15;1.40;;;11.10;99.90;;;;;;5089946;28;20402;-80
2021/05/18 03:40:32;;;;;;;3.13;1.15;;;11.10;99.90;;;;;;5089649;28;20057;-80
2021/05/18 03:45:48;;;;;;;1.23;1.13;;;11.30;99.90;;;;;;5088618;28;20080;-80
2021/05/18 03:53:57;;;;;;;3.25;1.42;;;11.40;99.90;;;;;;5088560;28;20074;-80
2021/05/18 04:02:40;;;;;;;3.88;1.85;;;11.60;99.90;;;;;;5089514;28;20135;-80
2021/05/18 04:04:42;;;;;;;1.77;1.10;;;11.60;99.90;;;;;;5085633;28;20039;-80
2021/05/18 04:20:43;;;;;;;1.42;1.13;;;12.00;99.90;;;;;;5087698;28;20028;-79
2021/05/18 04:23:32;;;;;;;2.17;1.25;;;12.10;99.90;;;;;;5088411;28;20429;-79
2021/05/18 04:26:24;;;;;;;2.45;1.52;;;12.10;99.90;;;;;;5087075;28;20032;-80
2021/05/18 04:40:17;;;;;;;1.73;1.42;;;12.30;99.90;;;;;;5088638;28;20127;-80
2021/05/18 05:01:19;;;;;;;2.35;1.20;;;12.50;99.90;;;;;;5084968;28;20397;-74
2021/05/18 05:06:34;;;;;;;7.18;1.48;;;12.50;99.90;;;;;;5083349;28;20032;-77
2021/05/18 05:09:06;;;;;;;2.58;1.42;;;12.50;99.90;;;;;;5079079;28;20032;-72
2021/05/18 05:14:26;;;;;;;4.22;1.17;;;12.60;99.90;;;;;;5086433;28;20146;-71
2021/05/18 05:16:52;;;;;;;3.80;1.52;;;12.50;99.90;;;;;;5083458;28;20249;-76
2021/05/18 05:19:20;;;;;;;2.50;1.70;;;12.50;99.90;;;;;;5079999;28;20028;-73
2021/05/18 05:21:45;;;;;;;2.40;1.42;;;12.50;99.90;;;;;;5083595;28;20041;-72
2021/05/18 05:24:11;;;;;;;2.13;1.63;;;12.50;99.90;;;;;;5088466;28;20493;-72
2021/05/18 05:26:39;;;;;;;2.78;1.90;;;12.40;99.90;;;;;;5085364;28;20020;-73
2021/05/18 05:29:05;;;;;;;4.07;1.75;;;12.30;99.90;;;;;;5083031;28;20417;-73
2021/05/18 05:31:31;;;;;;;3.47;2.00;;;12.30;99.90;;;;;;5087422;28;20024;-72
2021/05/18 05:33:57;;;;;;;5.95;1.52;;;12.30;99.90;;;;;;5085014;28;20032;-73
2021/05/18 05:36:23;;;;;;;3.58;1.70;;;12.30;99.90;;;;;;5083548;28;20016;-70
2021/05/18 05:38:49;;;;;;;3.38;2.15;;;12.50;99.90;;;;;;5087115;28;20078;-72
2021/05/18 05:41:15;;;;;;;2.65;1.65;;;12.50;99.90;;;;;;5086747;28;20034;-72
2021/05/18 05:43:41;;;;;;;4.22;2.13;;;12.60;99.90;;;;;;5086879;28;20055;-72
2021/05/18 05:46:08;;;;;;;3.38;1.90;;;12.60;99.90;;;;;;5087779;28;20024;-74
2021/05/18 05:48:34;;;;;;;2.78;1.73;;;12.70;99.90;;;;;;5083460;28;20036;-73
2021/05/18 05:50:59;;;;;;;3.03;2.03;;;12.80;99.90;;;;;;5083354;28;20044;-72
2021/05/18 05:53:25;;;;;;;4.50;2.10;;;12.70;99.90;;;;;;5086747;28;20020;-73
2021/05/18 05:55:50;;;;;;;4.03;2.40;;;12.80;99.90;;;;;;5086542;28;20024;-73
2021/05/18 05:58:16;;;;;;;3.03;2.25;;;12.80;99.90;;;;;;5086602;28;20036;-73
2021/05/18 06:00:42;;;;;;;3.50;2.20;;;13.00;99.90;;;;;;5086908;28;20043;-73
2021/05/18 06:03:07;;;;;;;3.40;1.88;;;13.00;99.90;;;;;;5081016;28;20069;-72
2021/05/18 06:05:33;;;;;;;2.75;1.70;;;13.10;99.90;;;;;;5075581;28;20024;-73
2021/05/18 06:07:58;;;;;;;4.47;2.17;;;13.20;99.90;;;;;;5086160;28;20030;-71
2021/05/18 06:10:37;;;;;;;5.55;2.28;;;13.30;99.90;;;;;;5085618;28;20047;-74
2021/05/18 06:34:13;;;;;;;3.67;2.45;;;13.60;99.90;;;;;;5086234;28;20066;-72
2021/05/18 06:41:23;;;;;;;5.53;3.10;;;13.70;99.90;;;;;;5096435;28;20533;-75
2021/05/18 06:45:43;;;;;;;7.15;3.17;;;13.70;99.90;;;;;;5089167;28;20024;-76
2021/05/18 06:46:53;;;;;;;4.25;3.25;;;13.80;99.90;;;;;;5090913;28;20474;-75
2021/05/18 06:49:19;;;;;;;6.32;3.15;;;13.90;99.90;;;;;;5087509;28;20039;-75
2021/05/18 06:51:44;;;;;;;5.78;3.38;;;13.90;99.90;;;;;;5090331;28;20415;-76
2021/05/18 06:54:10;;;;;;;7.32;3.05;;;13.90;99.90;;;;;;5090239;28;20032;-75
2021/05/18 06:56:37;;;;;;;6.75;3.50;;;14.10;99.90;;;;;;5090613;28;20112;-76
2021/05/18 07:01:30;;;;;;;4.45;3.05;;;14.20;99.90;;;;;;5087892;28;20039;-73
2021/05/18 07:03:59;;;;;;;5.13;3.53;;;14.10;99.90;;;;;;5089697;28;20024;-73
2021/05/18 07:11:19;;;;;;;5.63;3.65;;;13.90;99.90;;;;;;5080070;28;20055;-74
2021/05/18 07:13:45;;;;;;;6.03;3.40;;;13.80;99.90;;;;;;5086289;28;20563;-75
2021/05/18 07:16:10;;;;;;;6.70;3.97;;;13.80;99.90;;;;;;5087663;28;20067;-73
2021/05/18 07:18:36;;;;;;;6.38;3.72;;;13.80;99.90;;;;;;5090154;28;20028;-73
2021/05/18 07:21:02;;;;;;;6.68;3.88;;;13.90;99.90;;;;;;5079675;28;20466;-74
2021/05/18 07:23:28;;;;;;;7.97;3.63;;;13.80;99.90;;;;;;5087254;28;20036;-73
2021/05/18 07:25:53;;;;;;;6.82;4.15;;;13.90;99.90;;;;;;5089457;28;20398;-85
2021/05/18 07:28:20;;;;;;;6.22;3.65;;;14.00;99.90;;;;;;5087910;28;20646;-74
2021/05/18 07:31:33;;;;;;;8.52;3.90;;;14.00;99.90;;;;;;5088804;28;20478;-75
2021/05/18 07:33:59;;;;;;;5.53;2.80;;;14.00;99.90;;;;;;5077666;28;20086;-74
2021/05/18 07:36:24;;;;;;;6.00;3.58;;;14.00;99.90;;;;;;5086916;28;20490;-74
2021/05/18 07:38:50;;;;;;;5.57;3.55;;;14.00;99.90;;;;;;5087710;28;20119;-74
2021/05/18 07:41:16;;;;;;;7.50;4.35;;;14.00;99.90;;;;;;5089548;28;20020;-74
2021/05/18 07:43:41;;;;;;;7.40;3.88;;;14.00;99.90;;;;;;5089448;28;20066;-74
2021/05/18 07:46:13;;;;;;;7.63;3.97;;;14.00;99.90;;;;;;5089448;28;20583;-74
2021/05/18 07:49:07;;;;;;;5.95;3.58;;;14.10;99.90;;;;;;5089476;28;20028;-74
2021/05/18 07:59:40;;;;;;;14.18;3.42;;;14.10;99.90;;;;;;5088645;28;20513;-74
2021/05/18 08:02:24;;;;;;;9.65;3.70;;;14.10;99.90;;;;;;5081283;28;20047;-74
2021/05/18 08:07:35;;;;;;;8.55;3.35;;;14.10;99.90;;;;;;5079853;28;20031;-74
2021/05/18 08:10:21;;;;;;;6.53;3.83;;;14.20;99.90;;;;;;5089354;28;20403;-75
2021/05/18 08:12:47;;;;;;;10.45;3.90;;;14.10;99.90;;;;;;5087243;28;20032;-74
2021/05/18 08:18:08;;;;;;;7.57;4.25;;;14.00;99.90;;;;;;5087337;28;20461;-74
2021/05/18 08:20:53;;;;;;;6.03;3.90;;;13.90;99.90;;;;;;5088392;28;20027;-74
2021/05/18 09:33:29;;;;;;;7.80;3.03;;;13.30;99.90;;;;;;5087266;28;20051;-74
2021/05/18 09:47:31;;;;;;;4.35;2.28;;;13.20;99.90;;;;;;5087623;28;20035;-74
2021/05/18 09:48:01;;;;;;;7.10;3.28;;;13.40;99.90;;;;;;5079120;28;20115;-74
2021/05/18 10:36:28;;;;;;;7.57;2.90;;;15.40;99.90;;;;;;5090992;28;20028;-74
2021/05/18 10:39:33;;;;;;;4.93;2.80;;;15.30;99.90;;;;;;5089440;28;20036;-74
2021/05/18 10:42:11;;;;;;;5.57;3.45;;;15.00;99.90;;;;;;5087377;28;20131;-74
2021/05/18 10:44:56;;;;;;;7.80;3.67;;;14.70;99.90;;;;;;5086085;28;20020;-75
2021/05/18 10:47:44;;;;;;;8.68;3.88;;;14.60;99.90;;;;;;5090489;28;20024;-77
2021/05/18 10:50:11;;;;;;;7.18;2.83;;;14.60;99.90;;;;;;5088363;28;20031;-76
2021/05/18 10:52:37;;;;;;;8.57;3.38;;;14.70;99.90;;;;;;5090214;28;20052;-78
2021/05/18 10:55:08;;;;;;;5.03;2.90;;;14.50;99.90;;;;;;5090193;28;20517;-78
2021/05/18 10:57:33;;;;;;;4.28;2.63;;;14.40;99.90;;;;;;5089090;28;20069;-75
2021/05/18 11:00:08;;;;;;;6.00;3.58;;;14.30;99.90;;;;;;5089050;28;20149;-75
2021/05/18 11:02:40;;;;;;;7.50;2.85;;;14.40;99.90;;;;;;5090426;28;20050;-74
2021/05/18 11:05:07;;;;;;;8.77;3.47;;;14.60;99.90;;;;;;5081462;28;20119;-74
2021/05/18 11:07:42;;;;;;;6.72;2.95;;;14.60;99.90;;;;;;5086545;28;20103;-75
2021/05/18 11:10:16;;;;;;;5.75;3.22;;;14.60;99.90;;;;;;5090108;28;20031;-74
2021/05/18 11:12:46;;;;;;;3.97;2.40;;;14.70;99.90;;;;;;5090899;28;20031;-74
2021/05/18 11:15:16;;;;;;;6.25;2.80;;;14.60;99.90;;;;;;5086631;28;20039;-75
2021/05/18 11:17:47;;;;;;;8.13;3.60;;;14.30;99.90;;;;;;5088257;28;20077;-74
2021/05/18 11:20:34;;;;;;;8.55;3.30;;;14.20;99.90;;;;;;5088175;28;20028;-73
2021/05/18 11:23:23;;;;;;;5.95;3.28;;;14.00;99.90;;;;;;5089523;28;20032;-73
2021/05/18 11:26:04;;;;;;;5.15;2.88;;;13.70;99.90;;;;;;5089259;28;20031;-73
2021/05/18 11:28:35;;;;;;;6.22;3.40;;;13.60;99.90;;;;;;5090092;28;20027;-73
2021/05/18 11:31:06;;;;;;;4.65;3.10;;;13.60;99.90;;;;;;5085518;28;20036;-73
2021/05/18 11:33:37;;;;;;;6.22;3.22;;;13.60;99.90;;;;;;5089098;28;20038;-73
2021/05/18 11:36:20;;;;;;;8.23;2.78;;;13.80;99.90;;;;;;5090216;28;20387;-73
2021/05/18 11:38:55;;;;;;;8.82;3.17;;;14.00;99.90;;;;;;5087582;28;20043;-73
2021/05/18 11:41:26;;;;;;;4.00;2.45;;;14.20;99.90;;;;;;5089281;28;20039;-73
2021/05/18 11:43:57;;;;;;;5.25;2.60;;;14.50;99.90;;;;;;5089737;28;20023;-73
2021/05/18 11:46:24;;;;;;;8.95;3.53;;;14.70;99.90;;;;;;5089973;28;20055;-73
2021/05/18 11:49:01;;;;;;;6.85;3.58;;;14.50;99.90;;;;;;5084453;28;20081;-73
2021/05/18 11:51:51;;;;;;;6.38;2.88;;;14.40;99.90;;;;;;5088762;28;20060;-72
2021/05/18 11:54:19;;;;;;;6.85;2.75;;;14.50;99.90;;;;;;5089233;28;20119;-73
2021/05/18 11:56:45;;;;;;;12.88;3.60;;;14.60;99.90;;;;;;5089104;28;20082;-73
2021/05/18 11:59:16;;;;;;;5.70;2.88;;;14.80;99.90;;;;;;5088360;28;20024;-73
2021/05/18 12:01:58;;;;;;;6.00;3.20;;;14.80;99.90;;;;;;5089005;28;20032;-72
2021/05/18 12:04:26;;;;;;;6.80;3.05;;;15.10;99.90;;;;;;5081029;28;20086;-73
2021/05/18 12:07:00;;;;;;;8.00;2.53;;;15.20;99.90;;;;;;5086777;28;20028;-74
2021/05/18 12:09:27;;;;;;;6.30;2.85;;;15.70;99.90;;;;;;5087078;28;20024;-77
2021/05/18 12:11:54;;;;;;;4.22;2.78;;;16.20;97.20;;;;;;5088190;28;20035;-76
2021/05/18 12:14:21;;;;;;;6.47;2.67;;;16.70;97.60;;;;;;5088040;28;20410;-75
2021/05/18 12:16:46;;;;;;;5.75;2.42;;;18.00;94.70;;;;;;5089248;28;20171;-76
2021/05/18 12:19:14;;;;;;;4.75;2.45;;;19.90;87.40;;;;;;5088388;28;20035;-74
2021/05/18 12:21:43;;;;;;;5.07;2.30;;;20.80;73.90;;;;;;5085171;28;20056;-77
2021/05/18 12:24:14;;;;;;;3.13;1.90;;;21.90;73.10;;;;;;5084642;28;20123;-73
2021/05/18 12:26:50;;;;;;;6.40;2.53;;;23.40;65.40;;;;;;5088135;28;20047;-74
2021/05/18 12:29:35;;;;;;;4.00;2.20;;;23.90;57.60;;;;;;5086063;28;20418;-72
2021/05/18 12:32:20;;;;;;;7.07;1.95;;;22.90;60.20;;;;;;5083836;28;20028;-75
2021/05/18 12:34:50;;;;;;;3.28;1.60;;;21.80;62.40;;;;;;5082100;28;20419;-77
2021/05/18 12:37:17;;;;;;;4.87;2.17;;;20.60;65.60;;;;;;5077492;28;20270;-79
2021/05/18 12:39:45;;;;;;;4.10;1.92;;;19.90;67.40;;;;;;5088212;28;20398;-77
2021/05/18 12:42:14;;;;;;;3.42;2.05;;;19.00;69.00;;;;;;5073482;28;20355;-76
2021/05/18 12:44:59;;;;;;;4.15;2.10;;;18.40;75.40;;;;;;5077696;28;20035;-78
2021/05/18 12:47:29;;;;;;;5.45;2.33;;;17.80;78.50;;;;;;5076967;28;20027;-78
2021/05/18 12:49:54;;;;;;;5.18;2.53;;;17.30;81.50;;;;;;5087871;28;20107;-80
2021/05/18 12:52:20;;;;;;;6.50;2.40;;;17.00;83.90;;;;;;5084986;28;20182;-83
2021/05/18 12:54:53;;;;;;;7.57;2.38;;;16.80;82.20;;;;;;5083113;28;20028;-82
2021/05/18 12:57:20;;;;;;;3.15;1.73;;;16.60;83.70;;;;;;5080228;28;20107;-83
2021/05/18 13:00:06;;;;;;;5.60;2.28;;;16.50;85.30;;;;;;5084153;28;20027;-77
2021/05/18 13:02:41;;;;;;;5.07;2.25;;;16.40;88.00;;;;;;5087042;28;20259;-84
2021/05/18 13:05:30;;;;;;;4.30;2.03;;;16.20;89.90;;;;;;5080175;28;20386;-84
2021/05/18 13:08:05;;;;;;;5.28;2.25;;;16.00;90.90;;;;;;5084379;28;20024;-87
2021/05/18 13:10:39;;;;;;;4.20;1.92;;;15.90;91.70;;;;;;5075412;28;20031;-85
2021/05/18 13:13:06;;;;;;;3.10;2.00;;;15.70;92.10;;;;;;5079383;28;20028;-84
2021/05/18 13:15:31;;;;;;;4.05;2.15;;;15.60;91.00;;;;;;5077743;28;20052;-87
2021/05/18 13:17:59;;;;;;;3.47;1.77;;;15.50;91.40;;;;;;5078007;28;20054;-85
2021/05/18 13:20:35;;;;;;;4.38;1.92;;;15.50;92.00;;;;;;5081235;28;20028;-84
2021/05/18 13:23:03;;;;;;;2.33;1.63;;;15.60;91.40;;;;;;5084667;28;20123;-86
2021/05/18 13:28:13;;;;;;;3.22;1.67;;;15.40;91.80;;;;;;5078095;28;20081;-84
2021/05/18 13:30:38;;;;;;;4.00;1.77;;;15.40;91.90;;;;;;5082104;28;20024;-86
2021/05/18 13:33:07;;;;;;;6.75;1.63;;;15.40;91.30;;;;;;5081380;28;20459;-84
2021/05/18 13:35:33;;;;;;;4.15;1.70;;;15.50;90.70;;;;;;5081462;28;20032;-85
2021/05/18 13:37:59;;;;;;;2.55;1.65;;;15.50;90.90;;;;;;5079222;28;20529;-85
2021/05/18 13:40:26;;;;;;;4.22;1.90;;;15.50;90.30;;;;;;5082617;28;20398;-87
2021/05/18 13:42:53;;;;;;;2.08;1.42;;;15.60;89.60;;;;;;5091469;28;20020;-84
2021/05/18 13:45:22;;;;;;;3.45;1.50;;;15.70;89.80;;;;;;5089729;28;20023;-86
2021/05/18 13:47:50;;;;;;;5.68;1.60;;;15.80;88.80;;;;;;5086199;28;20016;-85
2021/05/18 13:50:16;;;;;;;1.50;0.98;;;16.00;86.80;;;;;;5091179;28;20108;-86
2021/05/18 13:52:44;;;;;;;5.70;1.58;;;16.20;84.40;;;;;;5085678;28;20040;-80
2021/05/18 13:55:09;;;;;;;3.22;1.50;;;16.30;84.50;;;;;;5089827;28;20028;-82
2021/05/18 13:57:36;;;;;;;3.60;1.20;;;16.50;82.80;;;;;;5091475;28;20092;-80
2021/05/18 14:00:40;;;;;;;4.15;1.30;;;16.50;83.70;;;;;;5083247;28;20051;-76
2021/05/18 14:03:06;;;;;;;2.63;1.10;;;16.70;84.80;;;;;;5085131;28;20374;-75
2021/05/18 14:05:31;;;;;;;2.33;1.45;;;17.00;82.10;;;;;;5083568;28;20042;-78
2021/05/18 14:08:22;;;;;;;5.65;1.30;;;17.50;80.60;;;;;;5081971;28;20426;-77
2021/05/18 14:10:59;;;;;;;1.88;1.40;;;19.30;76.70;;;;;;5079321;28;20035;-79
2021/05/18 14:13:27;;;;;;;2.10;1.42;;;21.40;62.10;;;;;;5090128;28;20127;-81
2021/05/18 14:15:52;;;;;;;5.20;1.55;;;21.90;61.20;;;;;;5090741;28;20517;-77
2021/05/18 14:18:18;;;;;;;3.92;1.35;;;21.40;59.90;;;;;;5089492;28;20032;-86
2021/05/18 14:20:44;;;;;;;2.50;1.10;;;21.10;63.00;;;;;;5091169;28;20054;-74
2021/05/18 14:23:10;;;;;;;2.20;1.52;;;21.20;62.40;;;;;;5090623;28;20028;-73
2021/05/18 14:25:37;;;;;;;2.33;1.13;;;21.20;62.00;;;;;;5087171;28;20077;-81
2021/05/18 14:28:03;;;;;;;1.85;1.23;;;20.60;63.60;;;;;;5083807;28;20054;-72
2021/05/18 14:30:29;;;;;;;5.40;1.70;;;20.20;64.70;;;;;;5089031;28;20051;-80
2021/05/18 14:32:54;;;;;;;1.65;1.38;;;20.10;64.00;;;;;;5082290;28;20469;-72
2021/05/18 14:35:20;;;;;;;2.03;1.10;;;20.00;63.40;;;;;;5081898;28;20036;-73
2021/05/18 14:37:57;;;;;;;1.42;0.90;;;20.00;63.70;;;;;;5086476;28;20070;-72
2021/05/18 14:40:30;;;;;;;2.58;1.10;;;20.10;64.50;;;;;;5088977;28;20036;-73
2021/05/18 14:43:00;;;;;;;2.17;1.10;;;20.60;58.60;;;;;;5090297;28;20024;-71
2021/05/18 14:45:33;;;;;;;0.85;0.70;;;20.80;59.50;;;;;;5088649;28;20020;-75
2021/05/18 14:56:01;;;;;;;1.77;1.10;;;20.20;64.40;;;;;;5090040;28;20043;-77
2021/05/18 14:58:27;;;;;;;1.80;1.23;;;20.00;63.10;;;;;;5089343;28;20024;-76
2021/05/18 15:00:52;;;;;;;1.20;1.10;;;19.70;65.50;;;;;;5089053;28;20101;-74
2021/05/18 15:03:18;;;;;;;1.60;1.00;;;19.30;66.50;;;;;;5088516;28;20440;-73
2021/05/18 15:05:43;;;;;;;3.53;0.70;;;19.00;65.80;;;;;;5088465;28;20032;-73
2021/05/18 15:08:09;;;;;;;1.88;1.20;;;18.70;67.80;;;;;;5089901;28;20409;-74
2021/05/18 15:10:35;;;;;;;2.83;1.08;;;18.60;69.70;;;;;;5088303;28;20041;-73
2021/05/18 15:13:01;;;;;;;0.95;0.70;;;18.40;68.30;;;;;;5082153;28;20475;-72
2021/05/18 15:15:27;;;;;;;1.63;0.98;;;18.50;67.10;;;;;;5087822;28;20089;-72
2021/05/18 15:17:56;;;;;;;2.25;1.00;;;18.80;67.90;;;;;;5089819;28;20077;-72
2021/05/18 15:20:22;;;;;;;0.65;0.60;;;20.20;63.20;;;;;;5088366;28;20024;-72
2021/05/18 15:22:48;;;;;;;1.15;0.95;;;21.60;59.30;;;;;;5086265;28;20285;-71
2021/05/18 15:25:15;;;;;;;1.48;0.90;;;22.20;56.00;;;;;;5078182;28;20021;-72
2021/05/18 15:27:40;;;;;;;1.48;0.80;;;22.10;55.30;;;;;;5085549;28;20406;-72
2021/05/18 15:30:07;;;;;;;2.83;1.20;;;21.90;56.20;;;;;;5083414;28;20020;-72
2021/05/18 15:32:33;;;;;;;1.85;1.08;;;21.50;58.20;;;;;;5084560;28;20036;-71
2021/05/18 15:34:58;;;;;;;2.28;1.13;;;21.10;57.40;;;;;;5085758;28;20181;-72
2021/05/18 15:37:27;;;;;;;2.28;0.90;;;20.70;59.40;;;;;;5081417;28;20089;-72
2021/05/18 15:39:52;;;;;;;0.80;0.80;;;20.10;59.90;;;;;;5088992;28;20028;-72
2021/05/18 15:42:19;;;;;;;0.70;0.70;;;19.90;59.50;;;;;;5086486;28;20111;-71
2021/05/18 15:44:44;;;;;;;1.23;1.13;;;19.50;61.20;;;;;;5088468;28;20723;-72
2021/05/18 15:47:10;;;;;;;1.92;0.88;;;19.20;63.60;;;;;;5085359;28;20032;-72
2021/05/18 15:49:35;;;;;;;1.85;1.05;;;18.90;64.60;;;;;;5083334;28;20020;-71
2021/05/18 15:52:02;;;;;;;1.30;1.08;;;18.70;68.20;;;;;;5084303;28;20505;-72
2021/05/18 15:54:27;;;;;;;1.83;0.90;;;18.50;66.00;;;;;;5087207;28;20036;-74
2021/05/18 15:56:53;;;;;;;1.83;0.90;;;18.40;65.60;;;;;;5085601;28;20369;-72
2021/05/18 15:59:19;;;;;;;2.92;0.80;;;18.20;65.90;;;;;;5074753;28;20024;-72
2021/05/18 16:01:45;;;;;;;3.13;1.00;;;18.10;67.40;;;;;;5064095;28;20024;-72
2021/05/18 16:04:11;;;;;;;1.75;1.10;;;18.10;68.00;;;;;;5077220;28;20089;-78
2021/05/18 16:06:40;;;;;;;2.22;0.90;;;17.90;66.50;;;;;;5076035;28;20031;-77
2021/05/18 16:09:07;;;;;;;8.25;1.27;;;17.80;71.40;;;;;;5077329;28;20054;-75
2021/05/18 16:11:33;;;;;;;1.48;0.90;;;17.70;67.50;;;;;;5078432;28;20099;-73
2021/05/18 16:13:58;;;;;;;1.70;0.90;;;17.60;68.00;;;;;;5083069;28;20032;-70
2021/05/18 16:16:25;;;;;;;2.97;1.08;;;17.50;68.70;;;;;;5086258;28;20031;-71
2021/05/18 16:18:51;;;;;;;4.32;1.33;;;17.60;70.30;;;;;;5078636;28;20155;-71
2021/05/18 16:21:18;;;;;;;1.20;0.80;;;17.70;68.10;;;;;;5076123;28;20106;-74
2021/05/18 16:23:52;;;;;;;0.82;0.68;;;17.70;67.70;;;;;;5085433;28;20034;-73
2021/05/18 16:26:21;;;;;;;0.90;0.90;;;17.80;66.30;;;;;;5076465;28;20020;-73
2021/05/18 16:28:47;;;;;;;2.58;0.98;;;17.70;65.30;;;;;;5084757;28;20067;-70
2021/05/18 16:31:14;;;;;;;0.88;0.60;;;17.80;64.70;;;;;;5087175;28;20056;-72
2021/05/18 16:33:40;;;;;;;2.40;1.10;;;17.70;65.70;;;;;;5088282;28;20032;-71
2021/05/18 16:36:08;;;;;;;1.23;0.90;;;17.60;67.60;;;;;;5087569;28;20065;-72
2021/05/18 16:38:34;;;;;;;2.80;1.25;;;17.40;69.20;;;;;;5087238;28;20085;-78
2021/05/18 16:41:00;;;;;;;1.80;0.98;;;17.30;69.50;;;;;;5088689;28;20039;-78
2021/05/18 16:43:26;;;;;;;5.10;1.27;;;17.20;69.70;;;;;;5085864;28;20020;-76
2021/05/18 16:45:53;;;;;;;1.13;0.90;;;17.40;70.10;;;;;;5084967;28;20295;-80
2021/05/18 16:48:20;;;;;;;1.08;0.82;;;17.40;68.50;;;;;;5085604;28;20048;-73
2021/05/18 16:50:46;;;;;;;2.95;0.95;;;17.40;69.50;;;;;;5085758;28;20364;-75
2021/05/18 16:53:12;;;;;;;1.50;1.17;;;17.40;69.80;;;;;;5086183;28;20038;-72
2021/05/18 16:55:38;;;;;;;2.42;0.88;;;17.50;67.50;;;;;;5086733;28;20471;-72
2021/05/18 16:58:04;;;;;;;4.32;1.08;;;17.60;66.20;;;;;;5085858;28;20028;-72
2021/05/18 17:00:30;;;;;;;1.08;0.80;;;17.80;66.00;;;;;;5086362;28;20028;-72
2021/05/18 17:02:56;;;;;;;3.10;0.68;;;17.80;65.70;;;;;;5087795;28;20051;-72
2021/05/18 17:05:25;;;;;;;0.98;0.80;;;17.70;65.80;;;;;;5088160;28;20020;-72
2021/05/18 17:07:51;;;;;;;2.55;1.13;;;17.60;66.70;;;;;;5088129;28;20030;-72
2021/05/18 17:10:17;;;;;;;1.40;0.80;;;17.60;67.00;;;;;;5087677;28;20110;-71
2021/05/18 17:12:42;;;;;;;1.08;0.90;;;17.60;68.60;;;;;;5088012;28;20024;-72
2021/05/18 17:15:08;;;;;;;1.98;1.20;;;17.70;66.60;;;;;;5087558;28;20020;-72
2021/05/18 17:17:35;;;;;;;2.53;1.15;;;17.60;67.90;;;;;;5087577;28;20028;-72
2021/05/18 17:20:01;;;;;;;3.47;1.25;;;17.60;68.00;;;;;;5087866;28;20027;-72
2021/05/18 17:22:27;;;;;;;1.65;0.80;;;17.40;69.50;;;;;;5087733;28;20542;-74
2021/05/18 17:24:52;;;;;;;1.35;1.02;;;17.20;69.50;;;;;;5088258;28;20467;-73
2021/05/18 17:27:18;;;;;;;2.67;1.20;;;17.30;68.90;;;;;;5087730;28;20027;-72